nws-alerts: Checking more than four warning/county codes can delay the loading of your pages. You should use a cron job to get the data.

Nearby METAR Reports

 

KOXC - Oxford/Waterbury, Connecticut, USA
Distance from station: NW 7mi, 11km
Updated: 02/22/2024 8:51am
Overcast
Overcast
 Wind from SW
Wind: SW 6 mph , 9 km/h
Temperature: 32°F , 0°C
Wind Chill: 26°F , -3°C
Dew Point: 27°F , -3°C
Humidity: 80%
Barometer: 30.06 inHg , 1017.9 hPa
Clouds: Overcast
Visibility: 10 miles , 16 km
Cloud details: Overcast 1600 ft
2024/02/22 13:51 KOXC 221351Z 22005KT 10SM OVC016 00/M03 A3006 RMK AO2 SLP199 T00001033 FZRANO
KHVN - New Haven/Tweed, Connecticut, USA
Distance from station: SE 13mi, 20km
Updated: 02/22/2024 8:53am
Overcast
Overcast
 Wind from S
Wind: S 8 mph , 13 km/h
Temperature: 37°F , 3°C
Wind Chill: 31°F , -1°C
Dew Point: 28°F , -2°C
Humidity: 70%
Barometer: 30.10 inHg , 1019.3 hPa
Clouds: Overcast
Visibility: 10 miles , 16 km
Cloud details: Overcast 2200 ft
2024/02/22 13:53 KHVN 221353Z 19007KT 10SM OVC022 03/M02 A3010 RMK AO2 SLP191 T00281022 $
 
KMMK - Meriden, Connecticut, USA
Distance from station: NE 13mi, 21km
Updated: 02/22/2024 8:53am
Overcast
Overcast
 Wind from SSE
Wind: SSE 3 mph , 6 km/h
Temperature: 30°F , -1°C
Dew Point: 25°F , -4°C
Humidity: 80%
Barometer: 30.09 inHg , 1019 hPa
Clouds: Overcast
Visibility: 10 miles , 16 km
Cloud details: Overcast 2100 ft
2024/02/22 13:53 KMMK 221353Z AUTO 15003KT 10SM OVC021 M01/M04 A3009 RMK AO2 SLP191 T10111039
KBDR - Bridgeport, Connecticut, USA
Distance from station: SSW 17mi, 27km
Updated: 02/22/2024 8:52am
Overcast
Overcast
 Wind from SSW
Wind: SSW 10 mph , 17 km/h
Temperature: 36°F , 2°C
Wind Chill: 29°F , -2°C
Dew Point: 27°F , -3°C
Humidity: 70%
Barometer: 30.09 inHg , 1019 hPa
Clouds: Overcast
Visibility: 10 miles , 16 km
Cloud details: Overcast 2300 ft
2024/02/22 13:52 KBDR 221352Z 20009KT 10SM OVC023 02/M03 A3009 RMK AO2 SLP190 T00221028 $
 
KDXR - Danbury, Connecticut, USA
Distance from station: W 23mi, 38km
Updated: 02/22/2024 8:53am
Overcast
Overcast
 Wind from varies
Wind: varies 3 mph , 6 km/h
Temperature: 36°F , 2°C
Dew Point: 27°F , -3°C
Humidity: 70%
Barometer: 30.06 inHg , 1017.9 hPa
Clouds: Overcast
Visibility: 10 miles , 16 km
Cloud details: Overcast 1900 ft
2024/02/22 13:53 KDXR 221353Z VRB03KT 10SM OVC019 02/M03 A3006 RMK AO2 SLP183 T00171033 $